sensor_id;sensor_type;location;lat;lon;timestamp;pressure;altitude;pressure_sealevel;temperature;humidity
59759;BME280;61150;62.516;17.862;2022-07-24T00:02:09;100787.95;;;11.91;63.60
59759;BME280;61150;62.516;17.862;2022-07-24T00:04:38;100788.91;;;11.77;63.55
59759;BME280;61150;62.516;17.862;2022-07-24T00:07:07;100790.10;;;11.89;63.45
59759;BME280;61150;62.516;17.862;2022-07-24T00:09:36;100787.99;;;11.92;63.20
59759;BME280;61150;62.516;17.862;2022-07-24T00:12:05;100786.57;;;11.95;62.98
59759;BME280;61150;62.516;17.862;2022-07-24T00:14:34;100781.03;;;11.95;62.93
59759;BME280;61150;62.516;17.862;2022-07-24T00:17:04;100785.66;;;12.02;62.63
59759;BME280;61150;62.516;17.862;2022-07-24T00:19:33;100782.94;;;11.91;62.39
59759;BME280;61150;62.516;17.862;2022-07-24T00:22:02;100787.65;;;12.08;61.99
59759;BME280;61150;62.516;17.862;2022-07-24T00:24:31;100790.68;;;12.08;61.74
59759;BME280;61150;62.516;17.862;2022-07-24T00:27:00;100789.44;;;12.24;61.45
59759;BME280;61150;62.516;17.862;2022-07-24T00:29:28;100789.02;;;12.34;61.67
59759;BME280;61150;62.516;17.862;2022-07-24T00:31:58;100782.04;;;12.23;61.50
59759;BME280;61150;62.516;17.862;2022-07-24T00:34:26;100783.34;;;12.20;61.60
59759;BME280;61150;62.516;17.862;2022-07-24T00:36:55;100783.19;;;12.13;61.56
59759;BME280;61150;62.516;17.862;2022-07-24T00:39:24;100783.93;;;12.14;61.67
59759;BME280;61150;62.516;17.862;2022-07-24T00:41:53;100781.53;;;12.21;61.62
59759;BME280;61150;62.516;17.862;2022-07-24T00:44:21;100784.71;;;12.18;61.81
59759;BME280;61150;62.516;17.862;2022-07-24T00:46:50;100785.20;;;12.19;61.80
59759;BME280;61150;62.516;17.862;2022-07-24T00:49:20;100782.71;;;12.08;61.70
59759;BME280;61150;62.516;17.862;2022-07-24T00:51:50;100785.55;;;12.02;61.88
59759;BME280;61150;62.516;17.862;2022-07-24T00:54:22;100782.87;;;12.10;62.07
59759;BME280;61150;62.516;17.862;2022-07-24T00:56:53;100786.28;;;12.02;61.74
59759;BME280;61150;62.516;17.862;2022-07-24T00:59:22;100787.47;;;12.07;61.95
59759;BME280;61150;62.516;17.862;2022-07-24T01:02:51;100786.54;;;12.44;61.73
59759;BME280;61150;62.516;17.862;2022-07-24T01:05:20;100784.30;;;12.32;61.20
59759;BME280;61150;62.516;17.862;2022-07-24T01:07:49;100786.11;;;12.41;60.97
59759;BME280;61150;62.516;17.862;2022-07-24T01:10:18;100789.42;;;12.46;60.97
59759;BME280;61150;62.516;17.862;2022-07-24T01:12:46;100782.69;;;12.65;60.46
59759;BME280;61150;62.516;17.862;2022-07-24T01:15:15;100780.88;;;12.55;60.19
59759;BME280;61150;62.516;17.862;2022-07-24T01:17:44;100782.04;;;12.63;59.66
59759;BME280;61150;62.516;17.862;2022-07-24T01:20:13;100779.26;;;12.73;59.44
59759;BME280;61150;62.516;17.862;2022-07-24T01:22:42;100780.71;;;12.79;58.84
59759;BME280;61150;62.516;17.862;2022-07-24T01:25:11;100779.87;;;12.82;59.05
59759;BME280;61150;62.516;17.862;2022-07-24T01:27:40;100775.24;;;12.85;58.98
59759;BME280;61150;62.516;17.862;2022-07-24T01:30:09;100778.07;;;12.83;58.89
59759;BME280;61150;62.516;17.862;2022-07-24T01:32:37;100778.48;;;12.87;58.59
59759;BME280;61150;62.516;17.862;2022-07-24T01:35:07;100775.64;;;12.81;59.00
59759;BME280;61150;62.516;17.862;2022-07-24T01:37:35;100778.26;;;12.71;58.91
59759;BME280;61150;62.516;17.862;2022-07-24T01:40:05;100776.21;;;12.81;59.14
59759;BME280;61150;62.516;17.862;2022-07-24T01:42:34;100784.44;;;12.71;58.98
59759;BME280;61150;62.516;17.862;2022-07-24T01:45:04;100779.79;;;12.77;59.01
59759;BME280;61150;62.516;17.862;2022-07-24T01:47:34;100776.25;;;12.84;58.93
59759;BME280;61150;62.516;17.862;2022-07-24T01:50:03;100777.25;;;12.88;58.63
59759;BME280;61150;62.516;17.862;2022-07-24T01:52:31;100775.02;;;12.79;58.55
59759;BME280;61150;62.516;17.862;2022-07-24T01:55:01;100773.34;;;12.86;58.69
59759;BME280;61150;62.516;17.862;2022-07-24T01:57:29;100772.03;;;12.93;58.43
59759;BME280;61150;62.516;17.862;2022-07-24T01:59:59;100773.01;;;12.88;58.12
59759;BME280;61150;62.516;17.862;2022-07-24T02:02:28;100775.37;;;12.92;58.31
59759;BME280;61150;62.516;17.862;2022-07-24T02:04:58;100770.53;;;13.04;58.22
59759;BME280;61150;62.516;17.862;2022-07-24T02:07:26;100772.33;;;13.01;57.91
59759;BME280;61150;62.516;17.862;2022-07-24T02:09:55;100771.78;;;12.95;57.79
59759;BME280;61150;62.516;17.862;2022-07-24T02:12:24;100770.51;;;13.07;57.82
59759;BME280;61150;62.516;17.862;2022-07-24T02:14:53;100767.58;;;13.11;57.34
59759;BME280;61150;62.516;17.862;2022-07-24T02:17:21;100770.98;;;13.17;57.22
59759;BME280;61150;62.516;17.862;2022-07-24T02:19:52;100767.65;;;13.21;57.27
59759;BME280;61150;62.516;17.862;2022-07-24T02:22:21;100767.56;;;13.24;56.95
59759;BME280;61150;62.516;17.862;2022-07-24T02:24:50;100768.57;;;13.31;56.55
59759;BME280;61150;62.516;17.862;2022-07-24T02:27:18;100768.65;;;13.47;56.26
59759;BME280;61150;62.516;17.862;2022-07-24T02:29:47;100769.34;;;13.39;56.43
59759;BME280;61150;62.516;17.862;2022-07-24T02:32:16;100775.41;;;13.30;57.04
59759;BME280;61150;62.516;17.862;2022-07-24T02:34:45;100780.57;;;13.25;57.28
59759;BME280;61150;62.516;17.862;2022-07-24T02:37:14;100781.93;;;13.13;58.50
59759;BME280;61150;62.516;17.862;2022-07-24T02:39:43;100783.28;;;12.89;59.07
59759;BME280;61150;62.516;17.862;2022-07-24T02:42:12;100784.59;;;12.76;60.73
59759;BME280;61150;62.516;17.862;2022-07-24T02:44:40;100787.48;;;12.60;61.82
59759;BME280;61150;62.516;17.862;2022-07-24T02:47:09;100794.61;;;12.47;61.51
59759;BME280;61150;62.516;17.862;2022-07-24T02:49:38;100793.74;;;12.41;62.26
59759;BME280;61150;62.516;17.862;2022-07-24T02:52:07;100801.43;;;12.35;62.87
59759;BME280;61150;62.516;17.862;2022-07-24T02:54:36;100802.94;;;12.23;63.22
59759;BME280;61150;62.516;17.862;2022-07-24T02:57:05;100807.55;;;12.20;63.82
59759;BME280;61150;62.516;17.862;2022-07-24T02:59:33;100814.37;;;12.15;64.43
59759;BME280;61150;62.516;17.862;2022-07-24T03:02:01;100807.75;;;12.09;64.43
59759;BME280;61150;62.516;17.862;2022-07-24T03:04:29;100804.63;;;12.00;64.87
59759;BME280;61150;62.516;17.862;2022-07-24T03:06:58;100808.29;;;12.09;64.89
59759;BME280;61150;62.516;17.862;2022-07-24T03:09:26;100814.55;;;12.08;64.95
59759;BME280;61150;62.516;17.862;2022-07-24T03:11:55;100815.52;;;12.18;65.01
59759;BME280;61150;62.516;17.862;2022-07-24T03:14:23;100806.95;;;12.15;65.78
59759;BME280;61150;62.516;17.862;2022-07-24T03:16:52;100811.20;;;12.17;65.17
59759;BME280;61150;62.516;17.862;2022-07-24T03:19:21;100807.09;;;12.32;64.80
59759;BME280;61150;62.516;17.862;2022-07-24T03:21:50;100812.64;;;12.46;64.32
59759;BME280;61150;62.516;17.862;2022-07-24T03:24:19;100808.17;;;12.71;64.23
59759;BME280;61150;62.516;17.862;2022-07-24T03:26:48;100801.76;;;12.87;64.85
59759;BME280;61150;62.516;17.862;2022-07-24T03:29:17;100808.64;;;12.77;64.13
59759;BME280;61150;62.516;17.862;2022-07-24T03:31:46;100811.67;;;12.83;63.84
59759;BME280;61150;62.516;17.862;2022-07-24T03:34:15;100812.82;;;13.01;63.81
59759;BME280;61150;62.516;17.862;2022-07-24T03:36:44;100811.74;;;13.08;63.59
59759;BME280;61150;62.516;17.862;2022-07-24T03:39:12;100807.81;;;13.27;63.62
59759;BME280;61150;62.516;17.862;2022-07-24T03:41:41;100812.82;;;13.42;62.47
59759;BME280;61150;62.516;17.862;2022-07-24T03:44:10;100817.66;;;13.62;61.60
59759;BME280;61150;62.516;17.862;2022-07-24T03:46:39;100815.15;;;13.77;61.24
59759;BME280;61150;62.516;17.862;2022-07-24T03:49:08;100816.61;;;13.89;61.74
59759;BME280;61150;62.516;17.862;2022-07-24T03:51:37;100819.48;;;13.76;61.74
59759;BME280;61150;62.516;17.862;2022-07-24T03:54:05;100823.90;;;13.79;60.45
59759;BME280;61150;62.516;17.862;2022-07-24T03:56:34;100825.41;;;14.05;60.65
59759;BME280;61150;62.516;17.862;2022-07-24T03:59:03;100823.31;;;14.07;61.36
59759;BME280;61150;62.516;17.862;2022-07-24T04:02:51;100831.18;;;13.94;61.88
59759;BME280;61150;62.516;17.862;2022-07-24T04:05:20;100831.68;;;14.14;61.98
59759;BME280;61150;62.516;17.862;2022-07-24T04:07:49;100832.83;;;14.23;61.88
59759;BME280;61150;62.516;17.862;2022-07-24T04:10:17;100833.02;;;14.20;62.23
59759;BME280;61150;62.516;17.862;2022-07-24T04:12:46;100831.70;;;14.37;61.90
59759;BME280;61150;62.516;17.862;2022-07-24T04:15:15;100833.20;;;14.47;61.49
59759;BME280;61150;62.516;17.862;2022-07-24T04:17:44;100830.21;;;14.46;61.30
59759;BME280;61150;62.516;17.862;2022-07-24T04:20:13;100829.83;;;14.52;61.68
59759;BME280;61150;62.516;17.862;2022-07-24T04:22:41;100827.37;;;14.65;61.69
59759;BME280;61150;62.516;17.862;2022-07-24T04:25:10;100821.92;;;14.68;61.83
59759;BME280;61150;62.516;17.862;2022-07-24T04:27:39;100824.43;;;14.82;62.19
59759;BME280;61150;62.516;17.862;2022-07-24T04:30:09;100827.32;;;14.84;62.06
59759;BME280;61150;62.516;17.862;2022-07-24T04:32:39;100819.87;;;14.91;62.36
59759;BME280;61150;62.516;17.862;2022-07-24T04:35:07;100818.81;;;14.91;62.62
59759;BME280;61150;62.516;17.862;2022-07-24T04:37:36;100815.83;;;14.88;62.89
59759;BME280;61150;62.516;17.862;2022-07-24T04:40:06;100812.00;;;14.83;62.77
59759;BME280;61150;62.516;17.862;2022-07-24T04:42:36;100814.18;;;14.93;62.33
59759;BME280;61150;62.516;17.862;2022-07-24T04:45:06;100812.91;;;15.02;62.56
59759;BME280;61150;62.516;17.862;2022-07-24T04:47:36;100809.81;;;14.84;62.57
59759;BME280;61150;62.516;17.862;2022-07-24T04:50:06;100815.62;;;15.11;62.62
59759;BME280;61150;62.516;17.862;2022-07-24T04:52:34;100812.41;;;15.35;62.67
59759;BME280;61150;62.516;17.862;2022-07-24T04:55:04;100813.78;;;15.50;61.36
59759;BME280;61150;62.516;17.862;2022-07-24T04:57:34;100810.17;;;15.46;60.70
59759;BME280;61150;62.516;17.862;2022-07-24T05:00:05;100812.49;;;15.58;61.24
59759;BME280;61150;62.516;17.862;2022-07-24T05:02:35;100809.83;;;15.63;60.56
59759;BME280;61150;62.516;17.862;2022-07-24T05:05:05;100808.87;;;15.81;59.93
59759;BME280;61150;62.516;17.862;2022-07-24T05:07:33;100810.16;;;16.33;58.63
59759;BME280;61150;62.516;17.862;2022-07-24T05:10:03;100805.62;;;16.93;57.40
59759;BME280;61150;62.516;17.862;2022-07-24T05:12:32;100801.78;;;17.62;57.54
59759;BME280;61150;62.516;17.862;2022-07-24T05:15:02;100804.83;;;17.94;55.79
59759;BME280;61150;62.516;17.862;2022-07-24T05:17:31;100803.74;;;18.36;54.29
59759;BME280;61150;62.516;17.862;2022-07-24T05:20:03;100802.07;;;19.47;52.55
59759;BME280;61150;62.516;17.862;2022-07-24T05:22:32;100796.23;;;20.70;49.55
59759;BME280;61150;62.516;17.862;2022-07-24T05:25:02;100788.12;;;22.40;46.11
59759;BME280;61150;62.516;17.862;2022-07-24T05:27:31;100788.21;;;22.77;45.05
59759;BME280;61150;62.516;17.862;2022-07-24T05:30:01;100788.90;;;22.41;44.26
59759;BME280;61150;62.516;17.862;2022-07-24T05:32:31;100787.14;;;22.70;45.24
59759;BME280;61150;62.516;17.862;2022-07-24T05:35:00;100789.66;;;23.57;41.98
59759;BME280;61150;62.516;17.862;2022-07-24T05:37:29;100793.55;;;23.71;41.70
59759;BME280;61150;62.516;17.862;2022-07-24T05:39:57;100790.19;;;24.37;40.68
59759;BME280;61150;62.516;17.862;2022-07-24T05:42:26;100786.88;;;24.47;40.01
59759;BME280;61150;62.516;17.862;2022-07-24T05:44:54;100787.61;;;25.00;38.85
59759;BME280;61150;62.516;17.862;2022-07-24T05:47:23;100788.39;;;25.46;38.40
59759;BME280;61150;62.516;17.862;2022-07-24T05:49:51;100787.80;;;25.93;38.18
59759;BME280;61150;62.516;17.862;2022-07-24T05:52:20;100794.66;;;25.62;38.42
59759;BME280;61150;62.516;17.862;2022-07-24T05:54:48;100792.27;;;24.00;40.55
59759;BME280;61150;62.516;17.862;2022-07-24T05:57:17;100787.74;;;22.60;44.09
59759;BME280;61150;62.516;17.862;2022-07-24T05:59:46;100795.23;;;21.64;46.74
59759;BME280;61150;62.516;17.862;2022-07-24T06:02:15;100803.03;;;21.00;48.13
59759;BME280;61150;62.516;17.862;2022-07-24T06:04:43;100798.50;;;20.57;49.71
59759;BME280;61150;62.516;17.862;2022-07-24T06:07:12;100797.72;;;20.69;50.94
59759;BME280;61150;62.516;17.862;2022-07-24T06:09:41;100798.67;;;21.05;50.38
59759;BME280;61150;62.516;17.862;2022-07-24T06:12:10;100794.87;;;21.87;48.15
59759;BME280;61150;62.516;17.862;2022-07-24T06:14:38;100794.17;;;22.38;45.48
59759;BME280;61150;62.516;17.862;2022-07-24T06:17:07;100793.54;;;22.22;47.01
59759;BME280;61150;62.516;17.862;2022-07-24T06:19:36;100798.05;;;21.78;46.99
59759;BME280;61150;62.516;17.862;2022-07-24T06:22:04;100798.22;;;21.23;48.13
59759;BME280;61150;62.516;17.862;2022-07-24T06:24:33;100798.27;;;20.94;48.58
59759;BME280;61150;62.516;17.862;2022-07-24T06:27:03;100806.40;;;20.62;50.47
59759;BME280;61150;62.516;17.862;2022-07-24T06:29:32;100800.37;;;20.45;51.61
59759;BME280;61150;62.516;17.862;2022-07-24T06:32:02;100803.04;;;20.40;50.67
59759;BME280;61150;62.516;17.862;2022-07-24T06:34:31;100801.14;;;20.37;50.79
59759;BME280;61150;62.516;17.862;2022-07-24T06:37:01;100800.49;;;20.34;48.71
59759;BME280;61150;62.516;17.862;2022-07-24T06:39:29;100800.25;;;20.47;49.64
59759;BME280;61150;62.516;17.862;2022-07-24T06:41:57;100808.71;;;20.29;49.18
59759;BME280;61150;62.516;17.862;2022-07-24T06:44:26;100811.27;;;20.22;48.38
59759;BME280;61150;62.516;17.862;2022-07-24T06:46:55;100815.91;;;20.34;50.26
59759;BME280;61150;62.516;17.862;2022-07-24T06:49:23;100816.58;;;20.13;50.01
59759;BME280;61150;62.516;17.862;2022-07-24T06:51:52;100809.86;;;19.92;50.38
59759;BME280;61150;62.516;17.862;2022-07-24T06:54:21;100814.56;;;19.88;51.00
59759;BME280;61150;62.516;17.862;2022-07-24T06:56:50;100813.61;;;19.92;51.35
59759;BME280;61150;62.516;17.862;2022-07-24T06:59:18;100820.03;;;19.84;51.36
59759;BME280;61150;62.516;17.862;2022-07-24T07:02:59;100824.68;;;19.73;51.64
59759;BME280;61150;62.516;17.862;2022-07-24T07:05:27;100820.61;;;19.47;52.39
59759;BME280;61150;62.516;17.862;2022-07-24T07:07:56;100825.78;;;19.50;53.55
59759;BME280;61150;62.516;17.862;2022-07-24T07:10:25;100823.96;;;19.40;53.09
59759;BME280;61150;62.516;17.862;2022-07-24T07:12:53;100825.61;;;19.43;53.03
59759;BME280;61150;62.516;17.862;2022-07-24T07:15:23;100827.68;;;19.30;52.78
59759;BME280;61150;62.516;17.862;2022-07-24T07:17:51;100825.46;;;19.33;53.94
59759;BME280;61150;62.516;17.862;2022-07-24T07:20:20;100828.61;;;19.31;53.25
59759;BME280;61150;62.516;17.862;2022-07-24T07:22:48;100835.57;;;19.20;53.27
59759;BME280;61150;62.516;17.862;2022-07-24T07:25:17;100837.52;;;19.21;53.76
59759;BME280;61150;62.516;17.862;2022-07-24T07:27:46;100836.71;;;19.22;53.88
59759;BME280;61150;62.516;17.862;2022-07-24T07:30:15;100835.46;;;19.03;54.36
59759;BME280;61150;62.516;17.862;2022-07-24T07:32:43;100837.68;;;18.95;55.00
59759;BME280;61150;62.516;17.862;2022-07-24T07:35:12;100842.83;;;18.99;55.56
59759;BME280;61150;62.516;17.862;2022-07-24T07:37:41;100841.09;;;19.20;55.51
59759;BME280;61150;62.516;17.862;2022-07-24T07:40:13;100842.18;;;19.16;56.49
59759;BME280;61150;62.516;17.862;2022-07-24T07:42:42;100843.33;;;19.22;55.54
59759;BME280;61150;62.516;17.862;2022-07-24T07:45:10;100838.91;;;19.19;55.76
59759;BME280;61150;62.516;17.862;2022-07-24T07:47:39;100837.91;;;19.24;54.93
59759;BME280;61150;62.516;17.862;2022-07-24T07:50:09;100839.62;;;19.05;55.80
59759;BME280;61150;62.516;17.862;2022-07-24T07:52:38;100839.26;;;19.16;56.43
59759;BME280;61150;62.516;17.862;2022-07-24T07:55:08;100837.36;;;19.05;56.47
59759;BME280;61150;62.516;17.862;2022-07-24T07:57:37;100838.28;;;19.05;56.21
59759;BME280;61150;62.516;17.862;2022-07-24T08:00:08;100836.94;;;19.11;57.15
59759;BME280;61150;62.516;17.862;2022-07-24T08:02:37;100837.22;;;19.16;56.33
59759;BME280;61150;62.516;17.862;2022-07-24T08:05:07;100840.93;;;19.20;55.82
59759;BME280;61150;62.516;17.862;2022-07-24T08:07:36;100838.38;;;19.13;56.42
59759;BME280;61150;62.516;17.862;2022-07-24T08:10:06;100844.65;;;19.00;58.40
59759;BME280;61150;62.516;17.862;2022-07-24T08:12:35;100842.00;;;19.18;57.26
59759;BME280;61150;62.516;17.862;2022-07-24T08:15:05;100845.42;;;19.56;55.67
59759;BME280;61150;62.516;17.862;2022-07-24T08:17:34;100846.24;;;19.44;55.94
59759;BME280;61150;62.516;17.862;2022-07-24T08:20:04;100842.59;;;19.60;54.71
59759;BME280;61150;62.516;17.862;2022-07-24T08:22:33;100843.75;;;19.73;54.00
59759;BME280;61150;62.516;17.862;2022-07-24T08:25:03;100846.89;;;19.88;55.34
59759;BME280;61150;62.516;17.862;2022-07-24T08:27:35;100847.26;;;20.04;53.90
59759;BME280;61150;62.516;17.862;2022-07-24T08:30:04;100845.30;;;20.27;53.53
59759;BME280;61150;62.516;17.862;2022-07-24T08:32:34;100849.39;;;20.52;51.70
59759;BME280;61150;62.516;17.862;2022-07-24T08:35:02;100850.34;;;20.83;51.82
59759;BME280;61150;62.516;17.862;2022-07-24T08:37:35;100851.16;;;21.00;51.15
59759;BME280;61150;62.516;17.862;2022-07-24T08:40:04;100847.26;;;21.12;48.31
59759;BME280;61150;62.516;17.862;2022-07-24T08:42:34;100851.66;;;21.20;48.32
59759;BME280;61150;62.516;17.862;2022-07-24T08:45:03;100854.55;;;21.38;50.54
59759;BME280;61150;62.516;17.862;2022-07-24T08:47:31;100845.70;;;21.60;50.51
59759;BME280;61150;62.516;17.862;2022-07-24T08:50:00;100849.00;;;21.92;50.70
59759;BME280;61150;62.516;17.862;2022-07-24T08:52:28;100849.58;;;22.05;49.75
59759;BME280;61150;62.516;17.862;2022-07-24T08:54:56;100853.52;;;22.19;48.92
59759;BME280;61150;62.516;17.862;2022-07-24T08:57:25;100853.61;;;22.04;50.75
59759;BME280;61150;62.516;17.862;2022-07-24T08:59:54;100856.94;;;21.86;46.73
59759;BME280;61150;62.516;17.862;2022-07-24T09:02:22;100857.98;;;22.11;50.57
59759;BME280;61150;62.516;17.862;2022-07-24T09:04:58;100857.56;;;22.19;48.59
59759;BME280;61150;62.516;17.862;2022-07-24T09:07:29;100853.09;;;22.31;48.13
59759;BME280;61150;62.516;17.862;2022-07-24T09:09:59;100853.56;;;22.50;46.09
59759;BME280;61150;62.516;17.862;2022-07-24T09:12:31;100855.98;;;22.44;46.88
59759;BME280;61150;62.516;17.862;2022-07-24T09:15:05;100854.66;;;22.58;48.14
59759;BME280;61150;62.516;17.862;2022-07-24T09:17:47;100850.79;;;22.51;46.90
59759;BME280;61150;62.516;17.862;2022-07-24T09:20:17;100848.20;;;22.62;44.78
59759;BME280;61150;62.516;17.862;2022-07-24T09:22:45;100849.64;;;22.67;45.14
59759;BME280;61150;62.516;17.862;2022-07-24T09:25:15;100847.79;;;22.80;45.69
59759;BME280;61150;62.516;17.862;2022-07-24T09:27:48;100849.12;;;22.79;45.87
59759;BME280;61150;62.516;17.862;2022-07-24T09:30:27;100849.67;;;23.03;45.60
59759;BME280;61150;62.516;17.862;2022-07-24T09:32:57;100851.81;;;22.84;43.71
59759;BME280;61150;62.516;17.862;2022-07-24T09:35:30;100849.24;;;23.00;46.92
59759;BME280;61150;62.516;17.862;2022-07-24T09:38:01;100843.97;;;22.98;45.19
59759;BME280;61150;62.516;17.862;2022-07-24T09:40:33;100843.72;;;23.14;46.75
59759;BME280;61150;62.516;17.862;2022-07-24T09:43:15;100845.67;;;22.97;46.96
59759;BME280;61150;62.516;17.862;2022-07-24T09:45:55;100845.43;;;23.17;46.54
59759;BME280;61150;62.516;17.862;2022-07-24T09:48:25;100842.18;;;23.23;45.21
59759;BME280;61150;62.516;17.862;2022-07-24T09:50:55;100841.17;;;23.22;47.95
59759;BME280;61150;62.516;17.862;2022-07-24T09:53:26;100839.00;;;23.49;45.93
59759;BME280;61150;62.516;17.862;2022-07-24T09:55:57;100843.92;;;23.33;45.99
59759;BME280;61150;62.516;17.862;2022-07-24T09:58:28;100840.97;;;23.30;45.34
59759;BME280;61150;62.516;17.862;2022-07-24T10:02:51;100834.66;;;22.24;46.10
59759;BME280;61150;62.516;17.862;2022-07-24T10:05:23;100840.31;;;22.11;45.42
59759;BME280;61150;62.516;17.862;2022-07-24T10:07:58;100838.41;;;22.11;48.33
59759;BME280;61150;62.516;17.862;2022-07-24T10:10:28;100832.41;;;22.34;50.05
59759;BME280;61150;62.516;17.862;2022-07-24T10:13:00;100831.35;;;22.59;50.03
59759;BME280;61150;62.516;17.862;2022-07-24T10:15:29;100831.50;;;22.61;50.46
59759;BME280;61150;62.516;17.862;2022-07-24T10:18:15;100825.01;;;22.79;47.07
59759;BME280;61150;62.516;17.862;2022-07-24T10:20:46;100828.77;;;22.63;50.02
59759;BME280;61150;62.516;17.862;2022-07-24T10:23:21;100826.61;;;22.59;49.71
59759;BME280;61150;62.516;17.862;2022-07-24T10:25:56;100826.78;;;22.51;48.75
59759;BME280;61150;62.516;17.862;2022-07-24T10:28:37;100830.07;;;22.41;48.35
59759;BME280;61150;62.516;17.862;2022-07-24T10:31:08;100835.01;;;22.31;50.13
59759;BME280;61150;62.516;17.862;2022-07-24T10:33:38;100834.95;;;22.45;49.88
59759;BME280;61150;62.516;17.862;2022-07-24T10:36:15;100832.90;;;22.41;49.37
59759;BME280;61150;62.516;17.862;2022-07-24T10:38:51;100827.42;;;22.55;50.42
59759;BME280;61150;62.516;17.862;2022-07-24T10:41:24;100823.69;;;22.64;50.27
59759;BME280;61150;62.516;17.862;2022-07-24T10:44:24;100824.40;;;22.63;49.33
59759;BME280;61150;62.516;17.862;2022-07-24T10:47:02;100826.86;;;22.27;49.65
59759;BME280;61150;62.516;17.862;2022-07-24T10:49:48;100832.90;;;22.49;49.87
59759;BME280;61150;62.516;17.862;2022-07-24T10:52:26;100830.94;;;22.51;47.91
59759;BME280;61150;62.516;17.862;2022-07-24T10:56:14;100828.22;;;22.47;48.33
59759;BME280;61150;62.516;17.862;2022-07-24T10:58:53;100829.19;;;22.48;49.25
59759;BME280;61150;62.516;17.862;2022-07-24T11:01:31;100827.50;;;22.60;50.72
59759;BME280;61150;62.516;17.862;2022-07-24T11:04:03;100828.33;;;22.75;50.98
59759;BME280;61150;62.516;17.862;2022-07-24T11:06:42;100829.73;;;22.83;50.03
59759;BME280;61150;62.516;17.862;2022-07-24T11:09:12;100826.20;;;22.85;48.83
59759;BME280;61150;62.516;17.862;2022-07-24T11:11:48;100824.60;;;22.84;49.66
59759;BME280;61150;62.516;17.862;2022-07-24T11:14:48;100824.92;;;22.83;48.91
59759;BME280;61150;62.516;17.862;2022-07-24T11:17:49;100831.06;;;22.75;48.76
59759;BME280;61150;62.516;17.862;2022-07-24T11:20:20;100833.40;;;22.80;45.84
59759;BME280;61150;62.516;17.862;2022-07-24T11:22:51;100829.23;;;22.78;47.27
59759;BME280;61150;62.516;17.862;2022-07-24T11:25:23;100830.17;;;22.99;48.34
59759;BME280;61150;62.516;17.862;2022-07-24T11:27:54;100830.95;;;22.59;47.68
59759;BME280;61150;62.516;17.862;2022-07-24T11:30:25;100833.30;;;22.85;47.15
59759;BME280;61150;62.516;17.862;2022-07-24T11:32:54;100834.73;;;22.62;46.66
59759;BME280;61150;62.516;17.862;2022-07-24T11:35:33;100834.77;;;22.51;48.45
59759;BME280;61150;62.516;17.862;2022-07-24T11:38:04;100837.85;;;22.54;46.34
59759;BME280;61150;62.516;17.862;2022-07-24T11:40:34;100834.20;;;22.42;45.91
59759;BME280;61150;62.516;17.862;2022-07-24T11:43:06;100832.21;;;22.37;46.61
59759;BME280;61150;62.516;17.862;2022-07-24T11:45:34;100829.06;;;22.42;46.55
59759;BME280;61150;62.516;17.862;2022-07-24T11:48:03;100828.25;;;22.32;46.06
59759;BME280;61150;62.516;17.862;2022-07-24T11:50:31;100831.48;;;22.36;46.07
59759;BME280;61150;62.516;17.862;2022-07-24T11:53:05;100828.64;;;22.12;47.93
59759;BME280;61150;62.516;17.862;2022-07-24T11:55:34;100828.12;;;21.81;47.60
59759;BME280;61150;62.516;17.862;2022-07-24T11:58:02;100829.89;;;22.09;47.04
59759;BME280;61150;62.516;17.862;2022-07-24T12:00:31;100827.91;;;22.14;46.02
59759;BME280;61150;62.516;17.862;2022-07-24T12:03:01;100826.87;;;21.90;47.49
59759;BME280;61150;62.516;17.862;2022-07-24T12:05:33;100826.37;;;21.76;47.65
59759;BME280;61150;62.516;17.862;2022-07-24T12:08:04;100827.38;;;21.77;47.51
59759;BME280;61150;62.516;17.862;2022-07-24T12:10:44;100822.11;;;21.97;46.44
59759;BME280;61150;62.516;17.862;2022-07-24T12:13:13;100816.69;;;22.06;46.33
59759;BME280;61150;62.516;17.862;2022-07-24T12:15:42;100817.76;;;22.30;45.22
59759;BME280;61150;62.516;17.862;2022-07-24T12:18:11;100813.98;;;22.30;42.64
59759;BME280;61150;62.516;17.862;2022-07-24T12:20:41;100811.75;;;22.15;43.88
59759;BME280;61150;62.516;17.862;2022-07-24T12:23:11;100805.93;;;22.15;43.78
59759;BME280;61150;62.516;17.862;2022-07-24T12:25:41;100810.57;;;22.19;42.47
59759;BME280;61150;62.516;17.862;2022-07-24T12:28:13;100808.00;;;22.10;43.78
59759;BME280;61150;62.516;17.862;2022-07-24T12:30:43;100804.06;;;22.20;44.48
59759;BME280;61150;62.516;17.862;2022-07-24T12:33:19;100802.62;;;22.20;44.52
59759;BME280;61150;62.516;17.862;2022-07-24T12:35:55;100798.74;;;22.21;44.27
59759;BME280;61150;62.516;17.862;2022-07-24T12:38:26;100794.26;;;22.35;42.93
59759;BME280;61150;62.516;17.862;2022-07-24T12:41:04;100791.59;;;22.02;42.81
59759;BME280;61150;62.516;17.862;2022-07-24T12:43:33;100794.97;;;21.75;43.22
59759;BME280;61150;62.516;17.862;2022-07-24T12:46:06;100792.89;;;21.78;43.22
59759;BME280;61150;62.516;17.862;2022-07-24T12:48:35;100789.61;;;21.92;42.92
59759;BME280;61150;62.516;17.862;2022-07-24T12:51:06;100789.69;;;21.67;42.04
59759;BME280;61150;62.516;17.862;2022-07-24T12:53:39;100786.46;;;21.43;40.98
59759;BME280;61150;62.516;17.862;2022-07-24T12:56:10;100783.21;;;21.59;41.63
59759;BME280;61150;62.516;17.862;2022-07-24T12:58:50;100777.86;;;21.53;40.68
59759;BME280;61150;62.516;17.862;2022-07-24T13:02:50;100775.25;;;21.96;40.58
59759;BME280;61150;62.516;17.862;2022-07-24T13:05:36;100776.37;;;22.18;40.38